createdAt,value
2022-09-04T00:01:18.181Z,99180.30
2022-09-04T00:04:43.930Z,99180.30
2022-09-04T00:08:14.178Z,99173.98
2022-09-04T00:11:48.063Z,99170.67
2022-09-04T00:15:10.047Z,99169.86
2022-09-04T00:18:32.778Z,99178.03
2022-09-04T00:21:54.369Z,99175.83
2022-09-04T00:25:18.426Z,99171.88
2022-09-04T00:28:42.973Z,99170.14
2022-09-04T00:32:07.562Z,99171.80
2022-09-04T00:35:32.198Z,99176.46
2022-09-04T00:38:55.982Z,99177.84
2022-09-04T00:42:22.438Z,99176.11
2022-09-04T00:45:49.098Z,99171.52
2022-09-04T00:49:31.704Z,99177.19
2022-09-04T00:53:32.494Z,99182.31
2022-09-04T00:57:25.454Z,99175.38
2022-09-04T01:00:43.486Z,99188.48
2022-09-04T01:04:39.127Z,99197.45
2022-09-04T01:08:01.172Z,99183.70
2022-09-04T01:11:28.741Z,99184.55
2022-09-04T01:14:52.881Z,99192.05
2022-09-04T01:18:17.789Z,99182.77
2022-09-04T01:22:08.425Z,99177.83
2022-09-04T01:25:53.157Z,99177.36
2022-09-04T01:29:21.493Z,99178.05
2022-09-04T01:32:50.861Z,99172.17
2022-09-04T01:36:14.492Z,99172.70
2022-09-04T01:39:35.089Z,99178.84
2022-09-04T01:42:59.158Z,99174.70
2022-09-04T01:46:53.141Z,99173.70
2022-09-04T01:50:13.861Z,99176.45
2022-09-04T01:53:33.987Z,99183.02
2022-09-04T01:56:54.337Z,99188.95
2022-09-04T02:00:17.653Z,99188.33
2022-09-04T02:03:44.253Z,99184.83
2022-09-04T02:07:05.739Z,99183.06
2022-09-04T02:10:31.547Z,99184.91
2022-09-04T02:14:02.347Z,99187.80
2022-09-04T02:17:26.706Z,99189.27
2022-09-04T02:20:44.699Z,99191.22
2022-09-04T02:24:09.035Z,99195.25
2022-09-04T02:27:31.821Z,99186.80
2022-09-04T02:30:54.421Z,99183.67
2022-09-04T02:34:18.672Z,99184.27
2022-09-04T02:37:39.729Z,99173.50
2022-09-04T02:41:04.148Z,99170.19
2022-09-04T02:44:38.285Z,99168.56
2022-09-04T02:48:00.894Z,99173.88
2022-09-04T02:51:39.621Z,99178.52
2022-09-04T02:55:08.641Z,99186.30
2022-09-04T02:58:36.083Z,99191.13
2022-09-04T03:01:59.960Z,99189.84
2022-09-04T03:05:22.890Z,99180.73
2022-09-04T03:08:44.022Z,99176.78
2022-09-04T03:12:08.586Z,99176.78
2022-09-04T03:15:32.714Z,99180.44
2022-09-04T03:19:08.697Z,99179.80
2022-09-04T03:22:32.207Z,99180.14
2022-09-04T03:26:24.247Z,99185.14
2022-09-04T03:29:47.428Z,99185.44
2022-09-04T03:33:09.105Z,99175.01
2022-09-04T03:36:31.666Z,99170.22
2022-09-04T03:39:55.303Z,99169.43
2022-09-04T03:43:38.055Z,99178.74
2022-09-04T03:47:08.639Z,99185.71
2022-09-04T03:50:33.534Z,99191.34
2022-09-04T03:53:54.373Z,99192.01
2022-09-04T03:57:29.428Z,99200.15
2022-09-04T04:00:52.664Z,99193.00
2022-09-04T04:04:50.006Z,99199.81
2022-09-04T04:08:34.853Z,99202.31
2022-09-04T04:12:00.868Z,99205.34
2022-09-04T04:15:29.622Z,99213.45
2022-09-04T04:19:01.005Z,99210.66
2022-09-04T04:22:43.741Z,99214.81
2022-09-04T04:26:11.470Z,99210.00
2022-09-04T04:29:44.493Z,99209.36
2022-09-04T04:33:25.755Z,99211.66
2022-09-04T04:36:47.832Z,99215.30
2022-09-04T04:40:08.768Z,99220.77
2022-09-04T04:43:29.830Z,99223.23
2022-09-04T04:46:57.630Z,99224.59
2022-09-04T04:50:24.775Z,99231.20
2022-09-04T04:53:45.196Z,99227.88
2022-09-04T04:57:09.448Z,99239.64
2022-09-04T05:00:32.358Z,99242.62
2022-09-04T05:04:03.965Z,99250.44
2022-09-04T05:07:31.971Z,99257.05
2022-09-04T05:10:52.588Z,99260.38
2022-09-04T05:14:16.350Z,99262.22
2022-09-04T05:17:41.306Z,99267.52
2022-09-04T05:21:01.951Z,99265.00
2022-09-04T05:24:26.293Z,99262.17
2022-09-04T05:28:13.263Z,99268.95
2022-09-04T05:31:38.505Z,99272.72
2022-09-04T05:35:09.889Z,99273.02
2022-09-04T05:38:32.239Z,99266.03
2022-09-04T05:42:05.876Z,99266.51
2022-09-04T05:45:29.307Z,99267.81
2022-09-04T05:48:55.141Z,99281.75
2022-09-04T05:52:46.078Z,99276.92
2022-09-04T05:56:28.109Z,99289.02
2022-09-04T06:00:13.439Z,99285.67
2022-09-04T06:04:01.953Z,99285.86
2022-09-04T06:07:23.860Z,99289.63
2022-09-04T06:10:50.858Z,99300.22
2022-09-04T06:14:25.248Z,99295.72
2022-09-04T06:18:08.348Z,99291.56
2022-09-04T06:21:51.522Z,99295.69
2022-09-04T06:25:54.924Z,99303.11
2022-09-04T06:29:43.605Z,99296.47
2022-09-04T06:33:26.139Z,99297.88
2022-09-04T06:37:00.944Z,99298.36
2022-09-04T06:40:34.796Z,99305.47
2022-09-04T06:43:56.696Z,99304.77
2022-09-04T06:47:21.751Z,99313.66
2022-09-04T06:50:44.875Z,99322.30
2022-09-04T06:54:08.612Z,99327.91
2022-09-04T06:57:45.049Z,99326.41
2022-09-04T07:01:06.501Z,99330.36
2022-09-04T07:04:33.896Z,99336.15
2022-09-04T07:07:55.801Z,99340.28
2022-09-04T07:11:24.051Z,99328.13
2022-09-04T07:15:04.840Z,99329.22
2022-09-04T07:18:33.536Z,99329.88
2022-09-04T07:21:57.659Z,99337.14
2022-09-04T07:25:27.601Z,99334.58
2022-09-04T07:29:08.971Z,99341.56
2022-09-04T07:32:29.382Z,99343.31
2022-09-04T07:35:51.739Z,99335.14
2022-09-04T07:39:19.951Z,99335.46
2022-09-04T07:42:43.818Z,99342.06
2022-09-04T07:46:09.112Z,99335.36
2022-09-04T07:49:34.473Z,99339.30
2022-09-04T07:53:16.906Z,99337.95
2022-09-04T07:56:44.184Z,99334.91
2022-09-04T08:00:16.092Z,99333.56
2022-09-04T08:03:53.948Z,99341.82
2022-09-04T08:07:14.247Z,99352.55
2022-09-04T08:10:39.396Z,99363.94
2022-09-04T08:14:24.437Z,99364.87
2022-09-04T08:18:20.879Z,99368.91
2022-09-04T08:21:41.591Z,99373.13
2022-09-04T08:25:12.466Z,99382.23
2022-09-04T08:28:46.847Z,99390.16
2022-09-04T08:32:15.629Z,99396.75
2022-09-04T08:35:38.866Z,99390.27
2022-09-04T08:39:15.850Z,99392.09
2022-09-04T08:43:04.864Z,99385.00
2022-09-04T08:46:59.043Z,99394.59
2022-09-04T08:51:09.727Z,99394.59
2022-09-04T08:55:22.556Z,99398.84
2022-09-04T08:59:36.083Z,99407.37
2022-09-04T09:03:41.299Z,99407.45
2022-09-04T09:07:49.466Z,99411.36
2022-09-04T09:12:10.834Z,99410.78
2022-09-04T09:16:03.712Z,99416.17
2022-09-04T09:24:17.013Z,99415.95
2022-09-04T09:33:17.705Z,99432.22
2022-09-04T09:37:01.242Z,99428.70
2022-09-04T09:41:04.255Z,99432.02
2022-09-04T09:44:48.998Z,99431.38
2022-09-04T09:48:44.859Z,99432.97
2022-09-04T09:52:50.361Z,99431.09
2022-09-04T09:56:53.557Z,99433.16
2022-09-04T10:00:22.176Z,99444.45
2022-09-04T10:04:34.410Z,99451.08
2022-09-04T10:08:44.421Z,99451.73
2022-09-04T10:13:12.358Z,99452.39
2022-09-04T10:16:55.543Z,99439.50
2022-09-04T10:21:02.020Z,99440.78
2022-09-04T10:24:54.446Z,99443.08
2022-09-04T10:28:39.623Z,99442.30
2022-09-04T10:32:49.384Z,99436.95
2022-09-04T10:36:26.469Z,99432.23
2022-09-04T10:40:03.889Z,99435.33
2022-09-04T10:43:51.919Z,99448.30
2022-09-04T10:47:19.329Z,99439.88
2022-09-04T10:51:09.258Z,99447.93
2022-09-04T10:54:51.721Z,99444.97
2022-09-04T10:58:37.044Z,99454.27
2022-09-04T11:02:45.508Z,99459.38
2022-09-04T11:06:48.445Z,99468.83
2022-09-04T11:10:39.412Z,99466.70
2022-09-04T11:14:22.497Z,99464.83
2022-09-04T11:18:09.452Z,99462.55
2022-09-04T11:22:00.873Z,99464.20
2022-09-04T11:26:14.819Z,99460.08
2022-09-04T11:29:55.034Z,99466.29
2022-09-04T11:34:03.271Z,99461.55
2022-09-04T11:37:52.688Z,99457.63
2022-09-04T11:41:58.907Z,99465.67
2022-09-04T11:46:26.326Z,99462.99
2022-09-04T11:50:09.272Z,99467.33
2022-09-04T11:54:03.943Z,99454.95
2022-09-04T11:57:29.966Z,99451.85
2022-09-04T12:00:57.059Z,99453.69
2022-09-04T12:04:48.846Z,99443.34
2022-09-04T12:08:36.691Z,99448.20
2022-09-04T12:12:24.507Z,99446.48
2022-09-04T12:16:23.207Z,99453.50
2022-09-04T12:20:27.921Z,99453.67
2022-09-04T12:24:09.126Z,99456.16
2022-09-04T12:28:06.269Z,99459.21
2022-09-04T12:31:52.197Z,99451.38
2022-09-04T12:35:39.807Z,99466.23
2022-09-04T12:39:27.465Z,99458.63
2022-09-04T12:42:50.433Z,99451.21
2022-09-04T12:46:17.728Z,99446.02
2022-09-04T12:50:17.008Z,99453.84
2022-09-04T12:53:53.022Z,99452.22
2022-09-04T12:57:26.610Z,99454.12
2022-09-04T13:00:49.687Z,99445.84
2022-09-04T13:04:14.962Z,99448.70
2022-09-04T13:07:46.874Z,99448.86
2022-09-04T13:11:20.111Z,99446.57
2022-09-04T13:15:15.038Z,99447.19
2022-09-04T13:18:50.189Z,99452.17
2022-09-04T13:22:25.591Z,99459.04
2022-09-04T13:25:54.030Z,99445.78
2022-09-04T13:29:26.226Z,99452.61
2022-09-04T13:33:33.128Z,99454.05
2022-09-04T13:37:04.784Z,99458.34
2022-09-04T13:40:49.225Z,99460.22
2022-09-04T13:44:24.342Z,99458.16
2022-09-04T13:47:51.002Z,99467.64
2022-09-04T13:51:13.346Z,99476.28
2022-09-04T13:54:33.922Z,99473.17
2022-09-04T13:58:09.457Z,99465.92
2022-09-04T14:01:36.665Z,99474.21
2022-09-04T14:05:19.315Z,99465.53
2022-09-04T14:09:06.037Z,99467.25
2022-09-04T14:12:46.665Z,99459.61
2022-09-04T14:16:19.604Z,99463.94
2022-09-04T14:19:48.731Z,99457.37
2022-09-04T14:23:14.411Z,99462.13
2022-09-04T14:26:51.268Z,99464.22
2022-09-04T14:30:20.414Z,99468.75
2022-09-04T14:33:43.908Z,99470.84
2022-09-04T14:37:08.196Z,99468.35
2022-09-04T14:43:42.539Z,99460.74
2022-09-04T14:47:13.048Z,99460.13
2022-09-04T14:50:34.997Z,99460.57
2022-09-04T14:54:00.618Z,99462.02
2022-09-04T14:57:30.565Z,99463.08
2022-09-04T15:01:12.279Z,99461.84
2022-09-04T15:04:36.892Z,99459.80
2022-09-04T15:12:29.285Z,99466.86
2022-09-04T15:17:00.322Z,99467.50
2022-09-04T15:20:23.300Z,99466.47
2022-09-04T15:24:03.319Z,99469.34
2022-09-04T15:27:29.513Z,99458.83
2022-09-04T15:30:55.518Z,99463.20
2022-09-04T15:34:27.006Z,99465.48
2022-09-04T15:37:43.982Z,99462.80
2022-09-04T15:41:16.999Z,99471.66
2022-09-04T15:44:37.306Z,99466.73
2022-09-04T15:48:14.659Z,99464.45
2022-09-04T15:51:46.172Z,99472.73
2022-09-04T15:55:28.035Z,99468.83
2022-09-04T15:58:55.914Z,99471.92
2022-09-04T16:02:16.915Z,99468.83
2022-09-04T16:05:45.548Z,99469.45
2022-09-04T16:09:07.736Z,99470.30
2022-09-04T16:12:45.275Z,99472.14
2022-09-04T16:16:11.212Z,99482.48
2022-09-04T16:19:41.904Z,99476.91
2022-09-04T16:23:11.438Z,99470.55
2022-09-04T16:26:33.103Z,99464.77
2022-09-04T16:29:53.142Z,99465.39
2022-09-04T16:33:24.983Z,99468.29
2022-09-04T16:36:35.604Z,99470.34
2022-09-04T16:40:07.356Z,99477.58
2022-09-04T16:43:35.071Z,99476.77
2022-09-04T16:46:59.943Z,99482.31
2022-09-04T16:50:24.576Z,99485.42
2022-09-04T16:53:47.283Z,99490.37
2022-09-04T16:57:13.024Z,99485.63
2022-09-04T17:00:33.129Z,99492.64
2022-09-04T17:04:13.669Z,99498.43
2022-09-04T17:07:31.923Z,99503.77
2022-09-04T17:11:00.224Z,99505.44
2022-09-04T17:14:25.766Z,99511.41
2022-09-04T17:17:48.067Z,99507.70
2022-09-04T17:25:05.725Z,99509.75
2022-09-04T17:29:11.929Z,99514.30
2022-09-04T17:29:13.392Z,99516.53
2022-09-04T17:31:29.312Z,99518.19
2022-09-04T17:40:38.612Z,99529.92
2022-09-04T17:40:43.590Z,99523.30
2022-09-04T17:42:06.793Z,99526.63
2022-09-04T17:45:22.934Z,99530.92
2022-09-04T17:48:48.495Z,99536.70
2022-09-04T17:52:10.850Z,99546.78
2022-09-04T17:55:39.078Z,99548.66
2022-09-04T17:58:58.351Z,99554.01
2022-09-04T18:02:27.158Z,99553.80
2022-09-04T18:05:52.931Z,99564.09
2022-09-04T18:09:11.748Z,99563.91
2022-09-04T18:12:37.601Z,99565.75
2022-09-04T18:16:00.249Z,99566.34
2022-09-04T18:19:27.131Z,99567.58
2022-09-04T18:23:17.201Z,99572.12
2022-09-04T18:26:43.348Z,99583.85
2022-09-04T18:36:39.325Z,99580.54
2022-09-04T18:37:16.621Z,99590.61
2022-09-04T18:37:17.997Z,99590.61
2022-09-04T18:40:43.057Z,99592.69
2022-09-04T18:50:23.520Z,99601.74
2022-09-04T18:50:35.291Z,99604.80
2022-09-04T18:51:12.589Z,99606.03
2022-09-04T18:54:21.459Z,99602.34
2022-09-04T18:57:48.677Z,99600.89
2022-09-04T19:01:09.016Z,99604.41
2022-09-04T19:04:51.298Z,99605.86
2022-09-04T19:08:11.005Z,99606.88
2022-09-04T19:11:33.093Z,99602.75
2022-09-04T19:14:51.690Z,99605.00
2022-09-04T19:18:23.118Z,99604.56
2022-09-04T19:21:57.758Z,99606.00
2022-09-04T19:25:10.541Z,99601.67
2022-09-04T19:28:31.017Z,99608.86
2022-09-04T19:31:53.344Z,99610.29
2022-09-04T19:35:21.340Z,99603.48
2022-09-04T19:45:56.403Z,99618.52
2022-09-04T19:46:04.421Z,99621.41
2022-09-04T19:46:11.592Z,99619.31
2022-09-04T19:50:30.674Z,99618.07
2022-09-04T19:53:31.771Z,99616.59
2022-09-04T19:56:13.150Z,99621.53
2022-09-04T19:59:45.390Z,99623.16
2022-09-04T20:03:29.016Z,99619.47
2022-09-04T20:06:48.157Z,99624.01
2022-09-04T20:10:28.521Z,99623.16
2022-09-04T20:13:57.879Z,99625.23
2022-09-04T20:17:30.980Z,99621.53
2022-09-04T20:21:02.024Z,99622.55
2022-09-04T20:24:25.154Z,99623.58
2022-09-04T20:27:58.113Z,99630.95
2022-09-04T20:31:37.132Z,99632.59
2022-09-04T20:35:13.787Z,99629.27
2022-09-04T20:38:31.345Z,99631.14
2022-09-04T20:41:54.239Z,99632.36
2022-09-04T20:49:21.853Z,99642.85
2022-09-04T20:52:52.409Z,99636.22
2022-09-04T20:53:00.571Z,99633.55
2022-09-04T20:55:46.139Z,99630.88
2022-09-04T21:03:11.576Z,99631.69
2022-09-04T21:03:22.396Z,99632.06
2022-09-04T21:06:36.363Z,99637.34
2022-09-04T21:10:05.898Z,99644.28
2022-09-04T21:13:26.094Z,99643.64
2022-09-04T21:16:49.970Z,99642.63
2022-09-04T21:21:11.950Z,99640.97
2022-09-04T21:24:51.198Z,99645.46
2022-09-04T21:28:37.850Z,99648.30
2022-09-04T21:32:11.973Z,99653.48
2022-09-04T21:35:33.533Z,99665.23
2022-09-04T21:39:36.697Z,99660.73
2022-09-04T21:43:12.233Z,99661.95
2022-09-04T21:46:53.651Z,99656.59
2022-09-04T21:51:01.891Z,99665.43
2022-09-04T21:59:49.280Z,99663.58
2022-09-04T22:02:36.344Z,99666.08
2022-09-04T22:02:43.614Z,99658.05
2022-09-04T22:05:51.056Z,99664.62
2022-09-04T22:13:27.333Z,99669.32
2022-09-04T22:13:39.969Z,99673.21
2022-09-04T22:16:03.939Z,99666.98
2022-09-04T22:20:14.242Z,99663.61
2022-09-04T22:24:15.346Z,99667.17
2022-09-04T22:28:44.802Z,99660.31
2022-09-04T22:33:02.222Z,99661.63
2022-09-04T22:37:01.165Z,99659.27
2022-09-04T22:40:56.077Z,99655.72
2022-09-04T22:44:04.031Z,99669.17
2022-09-04T22:47:35.936Z,99671.78
2022-09-04T22:51:06.885Z,99687.70
2022-09-04T22:54:38.836Z,99684.93
2022-09-04T22:58:03.962Z,99680.96
2022-09-04T23:01:51.653Z,99689.55
2022-09-04T23:05:42.186Z,99693.15
2022-09-04T23:13:57.992Z,99691.30
2022-09-04T23:14:00.922Z,99690.76
2022-09-04T23:17:14.198Z,99694.32
2022-09-04T23:26:38.043Z,99689.28
2022-09-04T23:26:49.608Z,99690.02
2022-09-04T23:28:27.957Z,99689.90
2022-09-04T23:32:03.685Z,99690.81
2022-09-04T23:35:44.197Z,99690.34
2022-09-04T23:40:20.301Z,99694.20
2022-09-04T23:44:36.483Z,99693.73
2022-09-04T23:48:22.983Z,99695.59
2022-09-04T23:52:03.994Z,99687.66
2022-09-04T23:56:05.272Z,99691.70
2022-09-04T23:59:43.577Z,99687.56
